Wec Goya — CQIE5 — position and weather

sailwx.info

Track history (hours):
 
Tides and Currents Weather Stations Pressure Air Temp Water Temp Dewpoint Dewpoint Depression Visibility Wind Speed Wind Dir Waves Ship Positions

Wec Goya

Last reported at 2018-Apr-22 10:30 UTC. Time now 2018-Apr-22 10:53 UTC.
Position N 43°21' W 003°03'.

Length 135 m; draft 7 m.

Type: Ship. MMSI: 255805937.

Date/timePositionNaut miles runAvg speedWind from/ knotsBaromVisibWave heightAir tempDewpointWater temp
2018-Apr-22 10:30N 43°21' W 003°03'0 0.0
2018-Apr-22 10:00N 43°21' W 003°03'0 0.0
2018-Apr-22 09:30N 43°21' W 003°03'0 0.0
2018-Apr-22 09:00N 43°21' W 003°03'0 0.0
2018-Apr-22 08:30N 43°21' W 003°03'0 0.0
2018-Apr-22 07:59N 43°21' W 003°03'0 0.0
2018-Apr-22 07:30N 43°21' W 003°03'0 0.0
2018-Apr-22 07:00N 43°21' W 003°03'1 1.1
2018-Apr-22 06:30N 43°21' W 003°03'5 9.4
2018-Apr-22 06:00N 43°25' W 003°07'817.0
2018-Apr-22 05:30N 43°29' W 003°17'816.8
2018-Apr-22 05:00N 43°33' W 003°27'816.7
2018-Apr-22 04:30N 43°34' W 003°39'816.9
2018-Apr-22 04:00N 43°35' W 003°50'816.8
2018-Apr-22 03:30N 43°35' W 004°02'3816.9
2018-Apr-22 01:15N 43°35' W 004°55'416.7
2018-Apr-22 01:00N 43°35' W 005°01'917.1
2018-Apr-22 00:29N 43°35' W 005°13'817.1
2018-Apr-21 23:59N 43°35' W 005°25'917.0
2018-Apr-21 23:26N 43°35' W 005°38'3 7.2
2018-Apr-21 23:00N 43°33' W 005°41'0 0.0
2018-Apr-21 22:30N 43°33' W 005°41'0 0.0
2018-Apr-21 21:59N 43°33' W 005°41'0 0.0
2018-Apr-21 21:30N 43°33' W 005°41'0 0.0
2018-Apr-21 21:00N 43°33' W 005°41'0 0.0
2018-Apr-21 20:30N 43°33' W 005°41'0 0.0
2018-Apr-21 18:38N 43°33' W 005°41'0 0.0
2018-Apr-21 18:30N 43°33' W 005°41'0 0.0
2018-Apr-21 18:00N 43°33' W 005°41'0 0.0
2018-Apr-21 17:30N 43°33' W 005°41'0 0.0
2018-Apr-21 17:00N 43°33' W 005°41'0 0.0
2018-Apr-21 16:30N 43°33' W 005°41'0 0.0
2018-Apr-21 16:00N 43°33' W 005°41'0 0.0
2018-Apr-21 15:30N 43°33' W 005°41'0 0.0
2018-Apr-21 15:00N 43°33' W 005°41'0 0.0
2018-Apr-21 14:30N 43°33' W 005°41'0 0.0
2018-Apr-21 14:00N 43°33' W 005°41'0 0.0
2018-Apr-21 13:30N 43°33' W 005°41'0 0.0
2018-Apr-21 13:00N 43°33' W 005°41'0 0.0
2018-Apr-21 12:30N 43°33' W 005°41'0 0.0
2018-Apr-21 12:00N 43°33' W 005°41'1 1.4
2018-Apr-21 11:29N 43°34' W 005°41'3 5.8
2018-Apr-21 11:01N 43°37' W 005°41'714.2
2018-Apr-21 10:29N 43°42' W 005°48'715.2
2018-Apr-21 10:00N 43°43' W 005°58'815.8
2018-Apr-21 09:29N 43°44' W 006°10'714.8
2018-Apr-21 09:00N 43°46' W 006°19'714.4
2018-Apr-21 08:30N 43°46' W 006°29'298 7.4
2018-Apr-19 16:09N 39°43' W 010°20'2613.8
2018-Apr-19 14:17N 39°19' W 010°33'1613.6
2018-Apr-19 13:06N 39°04' W 010°40'1113.7
2018-Apr-19 12:18N 38°54' W 010°46'514.0
2018-Apr-19 11:56N 38°49' W 010°49'613.9
2018-Apr-19 11:29N 38°44' W 010°52'713.9
2018-Apr-19 11:00N 38°38' W 010°55'814.0
2018-Apr-19 10:24N 38°30' W 010°59'913.9
2018-Apr-19 09:47N 38°22' W 011°04'2114.8
2018-Apr-19 08:21N 38°02' W 011°13'514.9
2018-Apr-19 08:00N 37°57' W 011°16'713.5
2018-Apr-19 07:28N 37°51' W 011°20'1713.6
2018-Apr-19 06:13N 37°35' W 011°29'313.8
2018-Apr-19 05:58N 37°32' W 011°31'713.8
2018-Apr-19 05:29N 37°26' W 011°34'813.8
2018-Apr-19 04:53N 37°19' W 011°38'613.7
2018-Apr-19 04:25N 37°13' W 011°42'613.9
2018-Apr-19 04:00N 37°07' W 011°44'713.7
2018-Apr-19 03:30N 37°01' W 011°48'713.7
2018-Apr-19 03:00N 36°55' W 011°51'25813.6
2018-Apr-18 08:01N 32°57' W 013°55'016.6
2018-Apr-18 08:00N 32°57' W 013°55'5316.6
2018-Apr-18 04:47N 32°08' W 014°19'816.3
2018-Apr-18 04:19N 32°01' W 014°23'516.5
2018-Apr-18 04:00N 31°56' W 014°25'1216.5
2018-Apr-18 03:18N 31°45' W 014°30'516.5
2018-Apr-18 03:00N 31°41' W 014°32'916.7
2018-Apr-18 02:29N 31°33' W 014°36'817.0
2018-Apr-18 02:00N 31°25' W 014°40'917.1
2018-Apr-18 01:30N 31°17' W 014°44'917.0
2018-Apr-18 01:00N 31°10' W 014°48'916.9
2018-Apr-18 00:30N 31°02' W 014°52'916.7
2018-Apr-17 23:58N 30°54' W 014°57'816.6
2018-Apr-17 23:30N 30°47' W 015°00'816.6
2018-Apr-17 23:00N 30°39' W 015°04'2016.5
2018-Apr-17 21:48N 30°21' W 015°13'616.8
2018-Apr-17 21:28N 30°16' W 015°16'816.7
2018-Apr-17 21:00N 30°09' W 015°19'916.6
2018-Apr-17 20:27N 30°00' W 015°23'716.6
2018-Apr-17 20:00N 29°53' W 015°27'916.6
2018-Apr-17 19:27N 29°45' W 015°30'1016.6
2018-Apr-17 18:50N 29°35' W 015°35'516.9
2018-Apr-17 18:30N 29°30' W 015°37'816.5
2018-Apr-17 18:00N 29°22' W 015°41'916.6
2018-Apr-17 17:28N 29°14' W 015°45'816.7
2018-Apr-17 16:59N 29°07' W 015°48'1516.7
2018-Apr-17 16:06N 28°53' W 015°55'816.5
2018-Apr-17 15:37N 28°46' W 015°58'216.5
2018-Apr-17 15:30N 28°44' W 015°59'916.7
2018-Apr-17 14:58N 28°36' W 016°03'715.9
2018-Apr-17 14:30N 28°29' W 016°07'611.1
2018-Apr-17 14:00N 28°29' W 016°14'0 0.2
2018-Apr-17 13:30N 28°29' W 016°14'0 0.0
2018-Apr-17 13:00N 28°29' W 016°14'0 0.0
2018-Apr-17 12:30N 28°29' W 016°14'0 0.0
2018-Apr-17 12:00N 28°29' W 016°14'0 0.0
2018-Apr-17 11:30N 28°29' W 016°14'0 0.0
2018-Apr-17 11:00N 28°29' W 016°14'0 0.0
2018-Apr-17 10:30N 28°29' W 016°14'0 0.0
2018-Apr-17 10:00N 28°29' W 016°14'0 0.0
2018-Apr-17 09:30N 28°29' W 016°14'0 0.0
2018-Apr-17 09:00N 28°29' W 016°14'0 0.0
2018-Apr-17 08:30N 28°29' W 016°14'0 0.0
2018-Apr-17 08:00N 28°29' W 016°14'0 0.0
2018-Apr-17 07:30N 28°29' W 016°14'0 0.0
2018-Apr-17 07:00N 28°29' W 016°14'0 0.0
2018-Apr-17 06:30N 28°29' W 016°14'0 0.0
2018-Apr-17 06:00N 28°29' W 016°14'0 0.0
2018-Apr-17 05:30N 28°29' W 016°14'0 0.0
2018-Apr-17 05:00N 28°29' W 016°14'0 0.2
2018-Apr-17 04:31N 28°29' W 016°14'2 4.6
2018-Apr-17 04:00N 28°28' W 016°12'713.1
2018-Apr-17 03:30N 28°25' W 016°05'815.3
2018-Apr-17 03:00N 28°23' W 015°57'816.2
2018-Apr-17 02:30N 28°20' W 015°48'817.0
2018-Apr-17 02:00N 28°17' W 015°39'917.2
2018-Apr-17 01:30N 28°14' W 015°30'815.5
2018-Apr-17 01:00N 28°10' W 015°22'4 7.4
2018-Apr-17 00:30N 28°08' W 015°25'0 0.5
2018-Apr-17 00:01N 28°08' W 015°25'0 0.0
2018-Apr-16 23:30N 28°08' W 015°25'0 0.0
2018-Apr-16 22:58N 28°08' W 015°25'0 0.0
2018-Apr-16 22:30N 28°08' W 015°25'0 0.0
2018-Apr-16 22:00N 28°08' W 015°25'0 0.0
2018-Apr-16 21:30N 28°08' W 015°25'0 0.0
2018-Apr-16 21:00N 28°08' W 015°25'0 0.0
2018-Apr-16 20:30N 28°08' W 015°25'0 0.0
2018-Apr-16 20:00N 28°08' W 015°25'0 0.0
2018-Apr-16 19:30N 28°08' W 015°25'0 0.0
2018-Apr-16 19:00N 28°08' W 015°25'0 0.0
2018-Apr-16 18:30N 28°08' W 015°25'0 0.0
2018-Apr-16 18:00N 28°08' W 015°25'0 0.0
2018-Apr-16 17:30N 28°08' W 015°25'0 0.0
2018-Apr-16 17:00N 28°08' W 015°25'0 0.0
2018-Apr-16 16:30N 28°08' W 015°25'0 0.0
2018-Apr-16 16:01N 28°08' W 015°25'0 0.0
2018-Apr-16 15:30N 28°08' W 015°25'0 0.0
2018-Apr-16 15:00N 28°08' W 015°25'0 0.0
2018-Apr-16 14:30N 28°08' W 015°25'0 0.0
2018-Apr-16 14:00N 28°08' W 015°25'0 0.0
2018-Apr-16 13:28N 28°08' W 015°25'0 0.0
2018-Apr-16 13:00N 28°08' W 015°25'0 0.0
2018-Apr-16 12:30N 28°08' W 015°25'0 0.0
2018-Apr-16 12:00N 28°08' W 015°25'0 0.0
2018-Apr-16 11:30N 28°08' W 015°25'0 0.0
2018-Apr-16 11:00N 28°08' W 015°25'0 0.0
2018-Apr-16 10:30N 28°08' W 015°25'0 0.0
2018-Apr-16 10:00N 28°08' W 015°25'0 0.0
2018-Apr-16 09:29N 28°08' W 015°25'0 0.0
2018-Apr-16 09:00N 28°08' W 015°25'0 0.0
2018-Apr-16 08:30N 28°08' W 015°25'0 0.0
2018-Apr-16 08:00N 28°08' W 015°25'0 0.0
2018-Apr-16 07:28N 28°08' W 015°25'0 0.0
2018-Apr-16 07:00N 28°08' W 015°25'0 0.0
2018-Apr-16 06:30N 28°08' W 015°25'0 0.0
2018-Apr-16 06:00N 28°08' W 015°25'0 0.0
2018-Apr-16 05:30N 28°08' W 015°25'2 4.1
2018-Apr-16 05:00N 28°07' W 015°23'511.1
2018-Apr-16 04:30N 28°11' W 015°18'714.7
2018-Apr-16 04:00N 28°16' W 015°12'814.9
2018-Apr-16 03:30N 28°21' W 015°06'715.0
2018-Apr-16 03:00N 28°27' W 015°00'815.0
2018-Apr-16 02:30N 28°32' W 014°54'814.7
2018-Apr-16 01:59N 28°37' W 014°48'715.0
2018-Apr-16 01:30N 28°43' W 014°42'1315.0
2018-Apr-16 00:39N 28°52' W 014°32'  
Track history (hours):
 
Tides and Currents Weather Stations Pressure Air Temp Water Temp Dewpoint Dewpoint Depression Visibility Wind Speed Wind Dir Waves Ship Positions

Wec Goya

Last reported at 2018-Apr-22 10:30 UTC. Time now 2018-Apr-22 10:53 UTC.
Position N 43°21' W 003°03'.

Length 135 m; draft 7 m.

Type: Ship. MMSI: 255805937.

Date/timePositionNaut miles runAvg speedWind from/ knotsBaromVisibWave heightAir tempDewpointWater temp
2018-Apr-22 10:30N 43°21' W 003°03'0 0.0
2018-Apr-22 10:00N 43°21' W 003°03'0 0.0
2018-Apr-22 09:30N 43°21' W 003°03'0 0.0
2018-Apr-22 09:00N 43°21' W 003°03'0 0.0
2018-Apr-22 08:30N 43°21' W 003°03'0 0.0
2018-Apr-22 07:59N 43°21' W 003°03'0 0.0
2018-Apr-22 07:30N 43°21' W 003°03'0 0.0
2018-Apr-22 07:00N 43°21' W 003°03'1 1.1
2018-Apr-22 06:30N 43°21' W 003°03'5 9.4
2018-Apr-22 06:00N 43°25' W 003°07'817.0
2018-Apr-22 05:30N 43°29' W 003°17'816.8
2018-Apr-22 05:00N 43°33' W 003°27'816.7
2018-Apr-22 04:30N 43°34' W 003°39'816.9
2018-Apr-22 04:00N 43°35' W 003°50'816.8
2018-Apr-22 03:30N 43°35' W 004°02'3816.9
2018-Apr-22 01:15N 43°35' W 004°55'416.7
2018-Apr-22 01:00N 43°35' W 005°01'917.1
2018-Apr-22 00:29N 43°35' W 005°13'817.1
2018-Apr-21 23:59N 43°35' W 005°25'917.0
2018-Apr-21 23:26N 43°35' W 005°38'3 7.2
2018-Apr-21 23:00N 43°33' W 005°41'0 0.0
2018-Apr-21 22:30N 43°33' W 005°41'0 0.0
2018-Apr-21 21:59N 43°33' W 005°41'0 0.0
2018-Apr-21 21:30N 43°33' W 005°41'0 0.0
2018-Apr-21 21:00N 43°33' W 005°41'0 0.0
2018-Apr-21 20:30N 43°33' W 005°41'0 0.0
2018-Apr-21 18:38N 43°33' W 005°41'0 0.0
2018-Apr-21 18:30N 43°33' W 005°41'0 0.0
2018-Apr-21 18:00N 43°33' W 005°41'0 0.0
2018-Apr-21 17:30N 43°33' W 005°41'0 0.0
2018-Apr-21 17:00N 43°33' W 005°41'0 0.0
2018-Apr-21 16:30N 43°33' W 005°41'0 0.0
2018-Apr-21 16:00N 43°33' W 005°41'0 0.0
2018-Apr-21 15:30N 43°33' W 005°41'0 0.0
2018-Apr-21 15:00N 43°33' W 005°41'0 0.0
2018-Apr-21 14:30N 43°33' W 005°41'0 0.0
2018-Apr-21 14:00N 43°33' W 005°41'0 0.0
2018-Apr-21 13:30N 43°33' W 005°41'0 0.0
2018-Apr-21 13:00N 43°33' W 005°41'0 0.0
2018-Apr-21 12:30N 43°33' W 005°41'0 0.0
2018-Apr-21 12:00N 43°33' W 005°41'1 1.4
2018-Apr-21 11:29N 43°34' W 005°41'3 5.8
2018-Apr-21 11:01N 43°37' W 005°41'714.2
2018-Apr-21 10:29N 43°42' W 005°48'715.2
2018-Apr-21 10:00N 43°43' W 005°58'815.8
2018-Apr-21 09:29N 43°44' W 006°10'714.8
2018-Apr-21 09:00N 43°46' W 006°19'714.4
2018-Apr-21 08:30N 43°46' W 006°29'298 7.4
2018-Apr-19 16:09N 39°43' W 010°20'2613.8
2018-Apr-19 14:17N 39°19' W 010°33'1613.6
2018-Apr-19 13:06N 39°04' W 010°40'1113.7
2018-Apr-19 12:18N 38°54' W 010°46'514.0
2018-Apr-19 11:56N 38°49' W 010°49'613.9
2018-Apr-19 11:29N 38°44' W 010°52'713.9
2018-Apr-19 11:00N 38°38' W 010°55'814.0
2018-Apr-19 10:24N 38°30' W 010°59'913.9
2018-Apr-19 09:47N 38°22' W 011°04'2114.8
2018-Apr-19 08:21N 38°02' W 011°13'514.9
2018-Apr-19 08:00N 37°57' W 011°16'713.5
2018-Apr-19 07:28N 37°51' W 011°20'1713.6
2018-Apr-19 06:13N 37°35' W 011°29'313.8
2018-Apr-19 05:58N 37°32' W 011°31'713.8
2018-Apr-19 05:29N 37°26' W 011°34'813.8
2018-Apr-19 04:53N 37°19' W 011°38'613.7
2018-Apr-19 04:25N 37°13' W 011°42'613.9
2018-Apr-19 04:00N 37°07' W 011°44'713.7
2018-Apr-19 03:30N 37°01' W 011°48'713.7
2018-Apr-19 03:00N 36°55' W 011°51'25813.6
2018-Apr-18 08:01N 32°57' W 013°55'016.6
2018-Apr-18 08:00N 32°57' W 013°55'5316.6
2018-Apr-18 04:47N 32°08' W 014°19'816.3
2018-Apr-18 04:19N 32°01' W 014°23'516.5
2018-Apr-18 04:00N 31°56' W 014°25'1216.5
2018-Apr-18 03:18N 31°45' W 014°30'516.5
2018-Apr-18 03:00N 31°41' W 014°32'916.7
2018-Apr-18 02:29N 31°33' W 014°36'817.0
2018-Apr-18 02:00N 31°25' W 014°40'917.1
2018-Apr-18 01:30N 31°17' W 014°44'917.0
2018-Apr-18 01:00N 31°10' W 014°48'916.9
2018-Apr-18 00:30N 31°02' W 014°52'916.7
2018-Apr-17 23:58N 30°54' W 014°57'816.6
2018-Apr-17 23:30N 30°47' W 015°00'816.6
2018-Apr-17 23:00N 30°39' W 015°04'2016.5
2018-Apr-17 21:48N 30°21' W 015°13'616.8
2018-Apr-17 21:28N 30°16' W 015°16'816.7
2018-Apr-17 21:00N 30°09' W 015°19'916.6
2018-Apr-17 20:27N 30°00' W 015°23'716.6
2018-Apr-17 20:00N 29°53' W 015°27'916.6
2018-Apr-17 19:27N 29°45' W 015°30'1016.6
2018-Apr-17 18:50N 29°35' W 015°35'516.9
2018-Apr-17 18:30N 29°30' W 015°37'816.5
2018-Apr-17 18:00N 29°22' W 015°41'916.6
2018-Apr-17 17:28N 29°14' W 015°45'816.7
2018-Apr-17 16:59N 29°07' W 015°48'1516.7
2018-Apr-17 16:06N 28°53' W 015°55'816.5
2018-Apr-17 15:37N 28°46' W 015°58'216.5
2018-Apr-17 15:30N 28°44' W 015°59'916.7
2018-Apr-17 14:58N 28°36' W 016°03'715.9
2018-Apr-17 14:30N 28°29' W 016°07'611.1
2018-Apr-17 14:00N 28°29' W 016°14'0 0.2
2018-Apr-17 13:30N 28°29' W 016°14'0 0.0
2018-Apr-17 13:00N 28°29' W 016°14'0 0.0
2018-Apr-17 12:30N 28°29' W 016°14'0 0.0
2018-Apr-17 12:00N 28°29' W 016°14'0 0.0
2018-Apr-17 11:30N 28°29' W 016°14'0 0.0
2018-Apr-17 11:00N 28°29' W 016°14'0 0.0
2018-Apr-17 10:30N 28°29' W 016°14'0 0.0
2018-Apr-17 10:00N 28°29' W 016°14'0 0.0
2018-Apr-17 09:30N 28°29' W 016°14'0 0.0
2018-Apr-17 09:00N 28°29' W 016°14'0 0.0
2018-Apr-17 08:30N 28°29' W 016°14'0 0.0
2018-Apr-17 08:00N 28°29' W 016°14'0 0.0
2018-Apr-17 07:30N 28°29' W 016°14'0 0.0
2018-Apr-17 07:00N 28°29' W 016°14'0 0.0
2018-Apr-17 06:30N 28°29' W 016°14'0 0.0
2018-Apr-17 06:00N 28°29' W 016°14'0 0.0
2018-Apr-17 05:30N 28°29' W 016°14'0 0.0
2018-Apr-17 05:00N 28°29' W 016°14'0 0.2
2018-Apr-17 04:31N 28°29' W 016°14'2 4.6
2018-Apr-17 04:00N 28°28' W 016°12'713.1
2018-Apr-17 03:30N 28°25' W 016°05'815.3
2018-Apr-17 03:00N 28°23' W 015°57'816.2
2018-Apr-17 02:30N 28°20' W 015°48'817.0
2018-Apr-17 02:00N 28°17' W 015°39'917.2
2018-Apr-17 01:30N 28°14' W 015°30'815.5
2018-Apr-17 01:00N 28°10' W 015°22'4 7.4
2018-Apr-17 00:30N 28°08' W 015°25'0 0.5
2018-Apr-17 00:01N 28°08' W 015°25'0 0.0
2018-Apr-16 23:30N 28°08' W 015°25'0 0.0
2018-Apr-16 22:58N 28°08' W 015°25'0 0.0
2018-Apr-16 22:30N 28°08' W 015°25'0 0.0
2018-Apr-16 22:00N 28°08' W 015°25'0 0.0
2018-Apr-16 21:30N 28°08' W 015°25'0 0.0
2018-Apr-16 21:00N 28°08' W 015°25'0 0.0
2018-Apr-16 20:30N 28°08' W 015°25'0 0.0
2018-Apr-16 20:00N 28°08' W 015°25'0 0.0
2018-Apr-16 19:30N 28°08' W 015°25'0 0.0
2018-Apr-16 19:00N 28°08' W 015°25'0 0.0
2018-Apr-16 18:30N 28°08' W 015°25'0 0.0
2018-Apr-16 18:00N 28°08' W 015°25'0 0.0
2018-Apr-16 17:30N 28°08' W 015°25'0 0.0
2018-Apr-16 17:00N 28°08' W 015°25'0 0.0
2018-Apr-16 16:30N 28°08' W 015°25'0 0.0
2018-Apr-16 16:01N 28°08' W 015°25'0 0.0
2018-Apr-16 15:30N 28°08' W 015°25'0 0.0
2018-Apr-16 15:00N 28°08' W 015°25'0 0.0
2018-Apr-16 14:30N 28°08' W 015°25'0 0.0
2018-Apr-16 14:00N 28°08' W 015°25'0 0.0
2018-Apr-16 13:28N 28°08' W 015°25'0 0.0
2018-Apr-16 13:00N 28°08' W 015°25'0 0.0
2018-Apr-16 12:30N 28°08' W 015°25'0 0.0
2018-Apr-16 12:00N 28°08' W 015°25'0 0.0
2018-Apr-16 11:30N 28°08' W 015°25'0 0.0
2018-Apr-16 11:00N 28°08' W 015°25'0 0.0
2018-Apr-16 10:30N 28°08' W 015°25'0 0.0
2018-Apr-16 10:00N 28°08' W 015°25'0 0.0
2018-Apr-16 09:29N 28°08' W 015°25'0 0.0
2018-Apr-16 09:00N 28°08' W 015°25'0 0.0
2018-Apr-16 08:30N 28°08' W 015°25'0 0.0
2018-Apr-16 08:00N 28°08' W 015°25'0 0.0
2018-Apr-16 07:28N 28°08' W 015°25'0 0.0
2018-Apr-16 07:00N 28°08' W 015°25'0 0.0
2018-Apr-16 06:30N 28°08' W 015°25'0 0.0
2018-Apr-16 06:00N 28°08' W 015°25'0 0.0
2018-Apr-16 05:30N 28°08' W 015°25'2 4.1
2018-Apr-16 05:00N 28°07' W 015°23'511.1
2018-Apr-16 04:30N 28°11' W 015°18'714.7
2018-Apr-16 04:00N 28°16' W 015°12'814.9
2018-Apr-16 03:30N 28°21' W 015°06'715.0
2018-Apr-16 03:00N 28°27' W 015°00'815.0
2018-Apr-16 02:30N 28°32' W 014°54'814.7
2018-Apr-16 01:59N 28°37' W 014°48'715.0
2018-Apr-16 01:30N 28°43' W 014°42'1315.0
2018-Apr-16 00:39N 28°52' W 014°32'  

Dump ship's entire track history